Time;durP1;ratioP1;P1;durP2;ratioP2;P2;SDS_P1;SDS_P2;PMS_P1;PMS_P2;Temp;Humidity;BMP_temperature;BMP_pressure;BME280_temperature;BME280_humidity;BME280_pressure;Samples;Min_cycle;Max_cycle;Signal;HPM_P1;HPM_P2
2021/06/04 00:01:08;;;;;;;15.77;6.63;;;;;;;;;;5093989;28;20020;-70
2021/06/04 00:03:34;;;;;;;13.93;6.55;;;;;;;;;;5093766;28;20040;-70
2021/06/04 00:06:00;;;;;;;16.00;6.90;;;;;;;;;;5094043;28;20464;-73
2021/06/04 00:08:26;;;;;;;15.50;6.80;;;;;;;;;;5093843;28;20031;-70
2021/06/04 00:10:54;;;;;;;14.23;6.80;;;;;;;;;;5093575;28;20447;-70
2021/06/04 00:13:34;;;;;;;14.15;6.93;;;;;;;;;;5093456;28;20024;-71
2021/06/04 00:16:03;;;;;;;10.82;6.50;;;;;;;;;;5093554;28;20120;-71
2021/06/04 00:18:29;;;;;;;10.13;6.60;;;;;;;;;;5093417;28;20095;-71
2021/06/04 00:20:56;;;;;;;14.13;6.50;;;;;;;;;;5091999;28;20024;-70
2021/06/04 00:23:22;;;;;;;11.27;6.43;;;;;;;;;;5091750;28;20514;-70
2021/06/04 00:25:48;;;;;;;10.75;6.65;;;;;;;;;;5089142;28;20036;-70
2021/06/04 00:28:14;;;;;;;11.65;6.57;;;;;;;;;;5089402;28;20020;-70
2021/06/04 00:30:40;;;;;;;10.85;6.40;;;;;;;;;;5093503;28;20055;-70
2021/06/04 00:33:07;;;;;;;12.05;5.95;;;;;;;;;;5092803;28;20081;-71
2021/06/04 00:35:35;;;;;;;12.40;6.88;;;;;;;;;;5093445;28;20016;-71
2021/06/04 00:38:01;;;;;;;15.68;6.85;;;;;;;;;;5093438;28;20032;-71
2021/06/04 00:40:30;;;;;;;11.80;6.82;;;;;;;;;;5093043;28;20055;-72
2021/06/04 00:42:57;;;;;;;13.80;7.38;;;;;;;;;;5094714;28;20052;-72
2021/06/04 00:45:26;;;;;;;11.55;7.05;;;;;;;;;;5095318;28;20023;-71
2021/06/04 00:47:52;;;;;;;11.23;6.90;;;;;;;;;;5093279;28;20103;-70
2021/06/04 00:50:24;;;;;;;12.95;7.25;;;;;;;;;;5093083;28;20479;-71
2021/06/04 00:52:50;;;;;;;13.90;6.97;;;;;;;;;;5093101;28;20043;-70
2021/06/04 00:55:19;;;;;;;11.35;6.75;;;;;;;;;;5093173;28;20036;-71
2021/06/04 00:57:46;;;;;;;14.38;7.18;;;;;;;;;;5091738;28;20024;-71
2021/06/04 01:00:22;;;;;;;14.50;6.78;;;;;;;;;;5092561;28;20509;-72
2021/06/04 01:02:49;;;;;;;12.02;7.07;;;;;;;;;;5092668;28;20051;-71
2021/06/04 01:05:15;;;;;;;11.23;6.90;;;;;;;;;;5092689;28;20059;-71
2021/06/04 01:07:53;;;;;;;11.95;6.90;;;;;;;;;;5092660;28;20441;-71
2021/06/04 01:10:28;;;;;;;13.63;6.63;;;;;;;;;;5092683;28;20036;-72
2021/06/04 01:13:01;;;;;;;15.40;6.82;;;;;;;;;;5092191;28;20494;-71
2021/06/04 01:15:26;;;;;;;;;;;;;;;;;;5092601;28;20024;-72
2021/06/04 01:17:56;;;;;;;12.68;7.00;;;;;;;;;;5092434;28;20427;-72
2021/06/04 01:20:28;;;;;;;10.98;6.72;;;;;;;;;;5092432;28;20069;-70
2021/06/04 01:23:01;;;;;;;14.80;6.72;;;;;;;;;;5091129;28;20488;-71
2021/06/04 01:25:26;;;;;;;;;;;;;;;;;;5092322;28;20020;-68
2021/06/04 01:27:54;;;;;;;10.23;6.30;;;;;;;;;;5092478;28;19915;-71
2021/06/04 01:30:29;;;;;;;12.63;6.88;;;;;;;;;;5092309;28;20036;-71
2021/06/04 01:32:59;;;;;;;10.70;7.10;;;;;;;;;;5091825;28;20028;-71
2021/06/04 01:35:27;;;;;;;13.27;7.65;;;;;;;;;;5091046;28;20071;-72
2021/06/04 01:37:54;;;;;;;10.68;6.75;;;;;;;;;;5092253;28;20063;-71
2021/06/04 01:40:23;;;;;;;12.95;7.97;;;;;;;;;;5092113;28;20031;-71
2021/06/04 01:42:50;;;;;;;11.02;7.15;;;;;;;;;;5091837;28;20032;-71
2021/06/04 01:45:16;;;;;;;12.65;7.15;;;;;;;;;;5092196;28;20111;-72
2021/06/04 01:47:44;;;;;;;11.40;7.38;;;;;;;;;;5090599;28;20428;-72
2021/06/04 01:50:17;;;;;;;13.32;7.38;;;;;;;;;;5092021;28;20759;-71
2021/06/04 01:52:44;;;;;;;12.13;7.28;;;;;;;;;;5091874;28;20057;-71
2021/06/04 01:55:10;;;;;;;11.23;6.88;;;;;;;;;;5091751;28;20081;-70
2021/06/04 01:57:41;;;;;;;9.68;6.88;;;;;;;;;;5091906;28;20024;-69
2021/06/04 02:00:11;;;;;;;11.15;5.00;;;;;;;;;;5092000;28;20386;-71
2021/06/04 02:02:37;;;;;;;15.18;6.88;;;;;;;;;;5093301;28;20371;-70
2021/06/04 02:05:06;;;;;;;9.60;6.80;;;;;;;;;;5092212;28;20028;-70
2021/06/04 02:07:33;;;;;;;10.32;7.10;;;;;;;;;;5091272;28;20036;-71
2021/06/04 02:10:00;;;;;;;16.48;7.85;;;;;;;;;;5091798;28;20024;-70
2021/06/04 02:12:26;;;;;;;9.55;6.90;;;;;;;;;;5091819;28;20768;-64
2021/06/04 02:15:00;;;;;;;13.25;7.13;;;;;;;;;;5092923;28;20043;-68
2021/06/04 02:17:32;;;;;;;11.13;7.15;;;;;;;;;;5094076;28;20491;-63
2021/06/04 02:20:11;;;;;;;11.60;7.25;;;;;;;;;;5091681;28;20107;-70
2021/06/04 02:22:57;;;;;;;11.68;7.45;;;;;;;;;;5094965;28;20089;-71
2021/06/04 02:25:49;;;;;;;13.90;7.07;;;;;;;;;;5091351;28;20073;-72
2021/06/04 02:28:38;;;;;;;9.77;6.65;;;;;;;;;;5090371;28;20055;-70
2021/06/04 02:31:07;;;;;;;13.25;7.40;;;;;;;;;;5091441;28;20050;-70
2021/06/04 02:33:48;;;;;;;12.30;6.80;;;;;;;;;;5091036;28;20398;-68
2021/06/04 02:36:16;;;;;;;12.10;7.57;;;;;;;;;;5091290;28;20479;-70
2021/06/04 02:38:42;;;;;;;15.15;7.78;;;;;;;;;;5091142;28;20102;-70
2021/06/04 02:41:12;;;;;;;12.52;7.38;;;;;;;;;;5095358;28;20024;-68
2021/06/04 02:43:41;;;;;;;12.77;6.90;;;;;;;;;;5092208;28;20055;-72
2021/06/04 02:46:12;;;;;;;12.55;6.97;;;;;;;;;;5094163;28;20390;-71
2021/06/04 02:48:38;;;;;;;10.52;5.07;;;;;;;;;;5095235;28;20024;-70
2021/06/04 02:51:18;;;;;;;14.05;7.35;;;;;;;;;;5094816;28;20028;-70
2021/06/04 02:53:47;;;;;;;14.40;7.60;;;;;;;;;;5091289;28;20032;-69
2021/06/04 02:56:24;;;;;;;12.25;7.22;;;;;;;;;;5091330;28;20052;-70
2021/06/04 02:58:53;;;;;;;16.85;7.63;;;;;;;;;;5091214;28;20077;-71
2021/06/04 03:01:20;;;;;;;14.32;7.60;;;;;;;;;;5091332;28;20479;-72
2021/06/04 03:03:51;;;;;;;14.50;7.35;;;;;;;;;;5091463;28;20119;-71
2021/06/04 03:06:18;;;;;;;15.38;6.72;;;;;;;;;;5094673;28;20016;-71
2021/06/04 03:08:46;;;;;;;12.60;7.57;;;;;;;;;;5095127;28;20035;-71
2021/06/04 03:11:13;;;;;;;11.95;7.18;;;;;;;;;;5094755;28;20496;-71
2021/06/04 03:13:39;;;;;;;12.35;7.05;;;;;;;;;;5093647;28;20077;-71
2021/06/04 03:16:08;;;;;;;12.13;7.60;;;;;;;;;;5090866;28;20082;-71
2021/06/04 03:18:37;;;;;;;12.25;6.72;;;;;;;;;;5091052;28;20021;-66
2021/06/04 03:21:07;;;;;;;14.85;6.82;;;;;;;;;;5092805;28;20055;-72
2021/06/04 03:23:37;;;;;;;10.75;6.45;;;;;;;;;;5095078;28;20077;-71
2021/06/04 03:26:05;;;;;;;10.20;6.78;;;;;;;;;;5095079;28;20111;-70
2021/06/04 03:28:31;;;;;;;12.05;6.60;;;;;;;;;;5094704;28;20023;-71
2021/06/04 03:30:58;;;;;;;10.70;7.00;;;;;;;;;;5094490;28;20032;-70
2021/06/04 03:33:27;;;;;;;11.13;6.97;;;;;;;;;;5094246;28;20395;-72
2021/06/04 03:35:53;;;;;;;11.93;6.80;;;;;;;;;;5094378;28;20897;-71
2021/06/04 03:38:20;;;;;;;14.27;6.72;;;;;;;;;;5094206;28;20028;-72
2021/06/04 03:40:46;;;;;;;14.13;7.50;;;;;;;;;;5094523;28;20491;-64
2021/06/04 03:43:14;;;;;;;10.70;6.43;;;;;;;;;;5094401;28;20035;-71
2021/06/04 03:45:42;;;;;;;12.30;5.95;;;;;;;;;;5094540;28;20027;-66
2021/06/04 03:48:09;;;;;;;13.00;7.00;;;;;;;;;;5094080;28;20032;-70
2021/06/04 03:50:35;;;;;;;10.73;6.57;;;;;;;;;;5093947;28;20039;-70
2021/06/04 03:53:02;;;;;;;11.88;6.63;;;;;;;;;;5094137;28;20016;-71
2021/06/04 03:55:28;;;;;;;13.63;7.13;;;;;;;;;;5092813;28;20028;-67
2021/06/04 03:57:55;;;;;;;11.10;6.68;;;;;;;;;;5094414;28;20562;-71
2021/06/04 04:00:26;;;;;;;13.10;7.47;;;;;;;;;;5094124;28;20036;-65
2021/06/04 04:02:52;;;;;;;12.82;7.50;;;;;;;;;;5093618;28;20466;-68
2021/06/04 04:05:18;;;;;;;11.25;6.82;;;;;;;;;;5094049;28;20024;-63
2021/06/04 04:07:44;;;;;;;14.57;7.57;;;;;;;;;;5093938;28;20487;-71
2021/06/04 04:10:11;;;;;;;11.32;6.50;;;;;;;;;;5093369;28;20498;-70
2021/06/04 04:12:37;;;;;;;12.77;6.82;;;;;;;;;;5093360;28;20466;-71
2021/06/04 04:15:05;;;;;;;15.13;7.30;;;;;;;;;;5093366;28;20040;-71
2021/06/04 04:17:32;;;;;;;14.85;7.43;;;;;;;;;;5092803;28;20020;-71
2021/06/04 04:19:58;;;;;;;12.40;7.47;;;;;;;;;;5093169;28;20034;-70
2021/06/04 04:22:24;;;;;;;11.40;6.57;;;;;;;;;;5093632;28;20479;-67
2021/06/04 04:24:50;;;;;;;13.30;7.07;;;;;;;;;;5093477;28;20378;-71
2021/06/04 04:27:16;;;;;;;14.45;7.60;;;;;;;;;;5095270;28;20024;-71
2021/06/04 04:29:42;;;;;;;10.98;6.15;;;;;;;;;;5093294;28;20028;-70
2021/06/04 04:32:12;;;;;;;12.32;6.50;;;;;;;;;;5093256;28;20020;-71
2021/06/04 04:34:38;;;;;;;12.82;6.03;;;;;;;;;;5092911;28;20048;-71
2021/06/04 04:37:04;;;;;;;14.13;6.85;;;;;;;;;;5093432;28;20443;-71
2021/06/04 04:39:32;;;;;;;15.20;7.03;;;;;;;;;;5093048;28;20063;-71
2021/06/04 04:41:58;;;;;;;8.77;5.65;;;;;;;;;;5093263;28;20098;-67
2021/06/04 04:44:27;;;;;;;14.50;6.82;;;;;;;;;;5093203;28;20070;-70
2021/06/04 04:46:53;;;;;;;14.00;7.10;;;;;;;;;;5093241;28;20085;-71
2021/06/04 04:49:19;;;;;;;16.17;7.70;;;;;;;;;;5092621;28;20521;-69
2021/06/04 04:51:45;;;;;;;15.05;7.03;;;;;;;;;;5091436;28;20114;-69
2021/06/04 04:54:13;;;;;;;14.02;6.70;;;;;;;;;;5092965;28;20056;-64
2021/06/04 04:56:40;;;;;;;8.38;6.00;;;;;;;;;;5092991;28;20078;-64
2021/06/04 04:59:06;;;;;;;13.98;5.95;;;;;;;;;;5093010;28;20035;-71
2021/06/04 05:01:32;;;;;;;14.48;6.22;;;;;;;;;;5093020;28;20024;-71
2021/06/04 05:03:58;;;;;;;11.63;6.20;;;;;;;;;;5092420;28;20024;-68
2021/06/04 05:06:24;;;;;;;9.90;5.85;;;;;;;;;;5092809;28;20024;-70
2021/06/04 05:08:51;;;;;;;11.63;5.40;;;;;;;;;;5092744;28;20035;-71
2021/06/04 05:11:18;;;;;;;11.82;5.90;;;;;;;;;;5093479;28;20031;-72
2021/06/04 05:13:44;;;;;;;12.00;5.55;;;;;;;;;;5092299;28;20043;-71
2021/06/04 05:16:10;;;;;;;11.25;5.15;;;;;;;;;;5092796;28;20026;-68
2021/06/04 05:18:37;;;;;;;16.38;6.45;;;;;;;;;;5092482;28;20036;-71
2021/06/04 05:21:06;;;;;;;13.50;5.65;;;;;;;;;;5092441;28;20032;-72
2021/06/04 05:23:32;;;;;;;12.80;5.75;;;;;;;;;;5092223;28;20082;-72
2021/06/04 05:25:58;;;;;;;10.27;5.90;;;;;;;;;;5091040;28;20026;-69
2021/06/04 05:28:25;;;;;;;10.13;5.90;;;;;;;;;;5071951;28;20490;-70
2021/06/04 05:30:53;;;;;;;9.52;5.72;;;;;;;;;;5077130;28;20039;-69
2021/06/04 05:33:24;;;;;;;9.95;5.55;;;;;;;;;;5079135;28;20063;-69
2021/06/04 05:35:50;;;;;;;11.73;5.70;;;;;;;;;;5082343;28;20101;-69
2021/06/04 05:38:16;;;;;;;9.32;5.22;;;;;;;;;;5071371;28;20137;-66
2021/06/04 05:40:44;;;;;;;14.23;5.57;;;;;;;;;;5071685;28;20389;-72
2021/06/04 05:43:12;;;;;;;10.07;5.55;;;;;;;;;;5070718;28;20074;-71
2021/06/04 05:45:41;;;;;;;17.85;5.97;;;;;;;;;;5078568;28;20499;-70
2021/06/04 05:48:08;;;;;;;19.77;5.85;;;;;;;;;;5073192;28;20364;-69
2021/06/04 05:50:37;;;;;;;10.18;5.68;;;;;;;;;;5069422;28;20063;-63
2021/06/04 05:53:05;;;;;;;12.30;6.00;;;;;;;;;;5074327;28;20028;-66
2021/06/04 05:55:33;;;;;;;9.80;5.75;;;;;;;;;;5077734;28;20044;-66
2021/06/04 05:57:59;;;;;;;11.85;6.20;;;;;;;;;;5081485;28;20151;-67
2021/06/04 06:00:35;;;;;;;12.25;5.93;;;;;;;;;;5088755;28;20063;-67
2021/06/04 06:03:03;;;;;;;10.98;6.38;;;;;;;;;;5090353;28;20044;-67
2021/06/04 06:05:29;;;;;;;11.73;6.00;;;;;;;;;;5090437;28;20379;-68
2021/06/04 06:07:56;;;;;;;11.00;6.05;;;;;;;;;;5081542;28;20009;-67
2021/06/04 06:10:22;;;;;;;9.35;5.40;;;;;;;;;;5081328;28;20099;-66
2021/06/04 06:12:49;;;;;;;15.85;6.00;;;;;;;;;;5079615;28;20096;-68
2021/06/04 06:15:16;;;;;;;9.90;5.32;;;;;;;;;;5080858;28;20064;-65
2021/06/04 06:17:42;;;;;;;10.98;5.28;;;;;;;;;;5078796;28;20024;-64
2021/06/04 06:20:10;;;;;;;8.90;5.45;;;;;;;;;;5071154;28;20032;-65
2021/06/04 06:22:36;;;;;;;13.48;6.80;;;;;;;;;;5075803;28;20027;-69
2021/06/04 06:25:04;;;;;;;12.45;5.70;;;;;;;;;;5081004;28;20732;-61
2021/06/04 06:27:30;;;;;;;9.32;5.43;;;;;;;;;;5079307;28;20391;-63
2021/06/04 06:29:56;;;;;;;8.48;5.03;;;;;;;;;;5078932;28;20059;-64
2021/06/04 06:32:22;;;;;;;18.10;11.93;;;;;;;;;;5076489;28;20382;-62
2021/06/04 06:34:48;;;;;;;10.20;5.15;;;;;;;;;;5078768;28;20241;-62
2021/06/04 06:37:15;;;;;;;15.15;6.65;;;;;;;;;;5078555;28;20051;-61
2021/06/04 06:39:41;;;;;;;11.68;5.45;;;;;;;;;;5081005;28;20054;-65
2021/06/04 06:42:07;;;;;;;11.35;4.97;;;;;;;;;;5083687;28;20037;-67
2021/06/04 06:44:34;;;;;;;14.40;8.75;;;;;;;;;;5078322;28;20033;-68
2021/06/04 06:47:00;;;;;;;10.88;5.15;;;;;;;;;;5081628;28;20024;-67
2021/06/04 06:49:26;;;;;;;10.07;5.40;;;;;;;;;;5090456;28;20431;-66
2021/06/04 06:51:53;;;;;;;10.57;5.47;;;;;;;;;;5089882;28;20030;-69
2021/06/04 06:54:22;;;;;;;10.13;4.90;;;;;;;;;;5091073;28;20036;-64
2021/06/04 06:56:49;;;;;;;8.18;4.50;;;;;;;;;;5095085;28;20344;-70
2021/06/04 06:59:15;;;;;;;9.15;5.03;;;;;;;;;;5089703;28;20024;-69
2021/06/04 07:01:42;;;;;;;8.82;4.85;;;;;;;;;;5083371;28;20040;-71
2021/06/04 07:04:08;;;;;;;8.45;4.80;;;;;;;;;;5082369;28;20028;-70
2021/06/04 07:06:35;;;;;;;12.38;4.60;;;;;;;;;;5083803;28;20020;-68
2021/06/04 07:09:01;;;;;;;11.98;4.85;;;;;;;;;;5084276;28;20036;-67
2021/06/04 07:11:31;;;;;;;13.13;4.60;;;;;;;;;;5083011;28;20044;-66
2021/06/04 07:13:58;;;;;;;12.13;5.20;;;;;;;;;;5079210;28;20485;-66
2021/06/04 07:16:24;;;;;;;10.18;4.68;;;;;;;;;;5084117;28;20511;-70
2021/06/04 07:18:52;;;;;;;12.85;4.93;;;;;;;;;;5081999;28;20016;-71
2021/06/04 07:21:20;;;;;;;11.55;5.15;;;;;;;;;;5073219;28;20017;-72
2021/06/04 07:23:49;;;;;;;9.73;4.80;;;;;;;;;;5073043;28;20067;-65
2021/06/04 07:26:15;;;;;;;19.02;5.95;;;;;;;;;;5075349;28;20020;-70
2021/06/04 07:28:43;;;;;;;11.60;5.22;;;;;;;;;;5075356;28;20028;-71
2021/06/04 07:31:10;;;;;;;12.65;6.13;;;;;;;;;;5073718;28;20367;-70
2021/06/04 07:33:38;;;;;;;10.93;5.85;;;;;;;;;;5072739;28;20044;-69
2021/06/04 07:36:06;;;;;;;11.80;6.43;;;;;;;;;;5086073;28;20032;-68
2021/06/04 07:38:33;;;;;;;16.08;5.82;;;;;;;;;;5090389;28;20383;-70
2021/06/04 07:40:59;;;;;;;9.45;5.10;;;;;;;;;;5077802;28;20039;-72
2021/06/04 07:43:27;;;;;;;10.32;5.18;;;;;;;;;;5073578;28;20028;-70
2021/06/04 07:45:53;;;;;;;13.57;6.20;;;;;;;;;;5072566;28;20036;-67
2021/06/04 07:48:20;;;;;;;11.73;5.38;;;;;;;;;;5069718;28;20051;-71
2021/06/04 07:50:47;;;;;;;12.95;4.82;;;;;;;;;;5071469;28;20032;-62
2021/06/04 07:53:14;;;;;;;12.45;5.53;;;;;;;;;;5070994;28;20031;-69
2021/06/04 07:55:41;;;;;;;14.20;7.20;;;;;;;;;;5071546;28;20040;-66
2021/06/04 07:58:07;;;;;;;17.63;8.30;;;;;;;;;;5072944;28;20614;-66
2021/06/04 08:00:33;;;;;;;10.70;6.70;;;;;;;;;;5074040;28;20036;-68
2021/06/04 08:03:01;;;;;;;13.35;6.93;;;;;;;;;;5072902;28;20505;-67
2021/06/04 08:05:27;;;;;;;13.25;6.28;;;;;;;;;;5072953;28;20027;-68
2021/06/04 08:07:53;;;;;;;10.60;7.13;;;;;;;;;;5073101;28;20380;-63
2021/06/04 08:10:20;;;;;;;11.73;6.15;;;;;;;;;;5073198;28;20028;-65
2021/06/04 08:12:46;;;;;;;13.98;5.68;;;;;;;;;;5073705;28;20041;-66
2021/06/04 08:15:15;;;;;;;15.40;7.45;;;;;;;;;;5072704;28;20058;-68
2021/06/04 08:17:42;;;;;;;16.10;7.00;;;;;;;;;;5073067;28;20023;-68
2021/06/04 08:20:10;;;;;;;16.23;6.70;;;;;;;;;;5073083;28;20436;-68
2021/06/04 08:22:38;;;;;;;11.45;5.68;;;;;;;;;;5072233;28;20024;-65
2021/06/04 08:25:05;;;;;;;12.25;6.60;;;;;;;;;;5069639;28;20172;-65
2021/06/04 08:27:31;;;;;;;14.00;6.20;;;;;;;;;;5069066;28;20023;-66
2021/06/04 08:29:57;;;;;;;13.13;6.80;;;;;;;;;;5070064;28;20032;-64
2021/06/04 08:32:23;;;;;;;10.45;5.57;;;;;;;;;;5069369;28;20024;-65
2021/06/04 08:34:49;;;;;;;12.57;5.43;;;;;;;;;;5071639;28;20060;-66
2021/06/04 08:37:15;;;;;;;17.42;7.65;;;;;;;;;;5072902;28;20092;-66
2021/06/04 08:39:43;;;;;;;15.93;7.05;;;;;;;;;;5072768;28;20108;-67
2021/06/04 08:42:19;;;;;;;12.20;6.30;;;;;;;;;;5075675;28;20119;-69
2021/06/04 08:45:02;;;;;;;10.95;5.60;;;;;;;;;;5072844;28;20020;-69
2021/06/04 08:47:31;;;;;;;15.95;6.63;;;;;;;;;;5072710;28;20495;-65
2021/06/04 08:50:00;;;;;;;16.75;6.28;;;;;;;;;;5072218;28;20132;-64
2021/06/04 08:52:26;;;;;;;12.07;5.65;;;;;;;;;;5072207;28;20026;-67
2021/06/04 08:55:03;;;;;;;10.40;5.75;;;;;;;;;;5072532;28;20032;-64
2021/06/04 08:57:36;;;;;;;13.70;6.00;;;;;;;;;;5072397;28;20387;-66
2021/06/04 09:00:06;;;;;;;9.73;5.20;;;;;;;;;;5072607;28;20028;-63
2021/06/04 09:02:36;;;;;;;14.27;5.72;;;;;;;;;;5072619;28;20025;-69
2021/06/04 09:05:05;;;;;;;11.93;4.47;;;;;;;;;;5075256;28;20040;-69
2021/06/04 09:07:34;;;;;;;11.45;4.90;;;;;;;;;;5072737;28;20031;-67
2021/06/04 09:10:12;;;;;;;10.32;4.93;;;;;;;;;;5072823;28;20055;-64
2021/06/04 09:12:48;;;;;;;12.63;5.40;;;;;;;;;;5072131;28;20024;-68
2021/06/04 09:15:17;;;;;;;12.60;4.60;;;;;;;;;;5071817;28;20415;-68
2021/06/04 09:17:57;;;;;;;13.13;3.25;;;;;;;;;;5071169;28;20016;-67
2021/06/04 09:20:23;;;;;;;5.88;2.63;;;;;;;;;;5075751;28;20024;-71
2021/06/04 09:22:54;;;;;;;8.20;2.60;;;;;;;;;;5085770;28;20032;-62
2021/06/04 09:25:23;;;;;;;6.43;2.70;;;;;;;;;;5092247;28;20558;-64
2021/06/04 09:27:51;;;;;;;6.85;2.88;;;;;;;;;;5092051;28;20028;-68
2021/06/04 09:30:20;;;;;;;6.53;2.42;;;;;;;;;;5091468;28;20028;-68
2021/06/04 09:33:04;;;;;;;5.65;2.78;;;;;;;;;;5091693;28;20039;-68
2021/06/04 09:35:30;;;;;;;6.95;3.05;;;;;;;;;;5090781;28;20063;-66
2021/06/04 09:38:14;;;;;;;6.25;2.50;;;;;;;;;;5091187;28;20078;-67
2021/06/04 09:40:41;;;;;;;8.00;2.40;;;;;;;;;;5091841;28;20020;-66
2021/06/04 09:43:12;;;;;;;4.97;2.70;;;;;;;;;;5091721;28;20515;-65
2021/06/04 09:45:42;;;;;;;7.00;2.55;;;;;;;;;;5088491;28;20425;-65
2021/06/04 09:48:08;;;;;;;6.75;2.60;;;;;;;;;;5080712;28;20361;-67
2021/06/04 09:50:37;;;;;;;4.00;2.20;;;;;;;;;;5091111;28;20024;-67
2021/06/04 09:53:14;;;;;;;3.63;2.03;;;;;;;;;;5080695;28;20059;-69
2021/06/04 09:55:41;;;;;;;6.60;2.50;;;;;;;;;;5082686;28;20040;-69
2021/06/04 09:58:09;;;;;;;3.85;2.30;;;;;;;;;;5080994;28;20162;-62
2021/06/04 10:00:38;;;;;;;7.28;2.70;;;;;;;;;;5088607;28;20028;-68
2021/06/04 10:03:20;;;;;;;6.80;3.00;;;;;;;;;;5083620;28;20040;-67
2021/06/04 10:05:46;;;;;;;29.35;3.80;;;;;;;;;;5081415;28;20032;-63
2021/06/04 10:08:15;;;;;;;6.03;2.67;;;;;;;;;;5079979;28;20491;-68
2021/06/04 10:10:41;;;;;;;8.70;2.80;;;;;;;;;;5082141;28;20031;-69
2021/06/04 10:13:15;;;;;;;4.55;2.55;;;;;;;;;;5079377;28;20033;-65
2021/06/04 10:15:45;;;;;;;6.65;2.10;;;;;;;;;;5077038;28;20036;-65
2021/06/04 10:18:46;;;;;;;4.43;2.53;;;;;;;;;;5080803;28;20031;-68
2021/06/04 10:21:18;;;;;;;5.25;2.70;;;;;;;;;;5058525;28;20068;-66
2021/06/04 10:23:49;;;;;;;8.98;2.45;;;;;;;;;;5059594;28;20032;-66
2021/06/04 10:26:21;;;;;;;7.65;2.67;;;;;;;;;;5058657;28;20587;-67
2021/06/04 10:28:49;;;;;;;4.55;2.30;;;;;;;;;;5059748;28;20357;-68
2021/06/04 10:31:18;;;;;;;5.68;2.05;;;;;;;;;;5057604;28;20039;-67
2021/06/04 10:33:55;;;;;;;5.93;2.53;;;;;;;;;;5053721;28;20088;-64
2021/06/04 10:36:22;;;;;;;4.30;2.15;;;;;;;;;;5050784;28;20045;-70
2021/06/04 10:38:51;;;;;;;8.10;2.28;;;;;;;;;;5048070;28;20480;-70
2021/06/04 10:41:20;;;;;;;4.75;2.40;;;;;;;;;;5048263;28;20056;-69
2021/06/04 10:43:50;;;;;;;4.93;1.90;;;;;;;;;;5048040;28;20485;-69
2021/06/04 10:46:20;;;;;;;7.28;1.83;;;;;;;;;;5048366;28;20511;-69
2021/06/04 10:49:05;;;;;;;5.10;2.10;;;;;;;;;;5048459;28;20048;-69
2021/06/04 10:51:31;;;;;;;6.15;2.38;;;;;;;;;;5048186;28;20040;-69
2021/06/04 10:54:10;;;;;;;5.70;2.15;;;;;;;;;;5047727;28;20074;-69
2021/06/04 10:56:44;;;;;;;4.20;2.03;;;;;;;;;;5070804;28;20609;-68
2021/06/04 10:59:22;;;;;;;3.75;2.10;;;;;;;;;;5070487;28;20025;-69
2021/06/04 11:02:07;;;;;;;3.45;1.77;;;;;;;;;;5070475;28;20028;-70
2021/06/04 11:04:51;;;;;;;3.67;2.38;;;;;;;;;;5070077;28;20450;-68
2021/06/04 11:07:37;;;;;;;6.25;2.20;;;;;;;;;;5070412;28;20032;-66
2021/06/04 11:10:09;;;;;;;8.68;2.50;;;;;;;;;;5070114;28;20067;-65
2021/06/04 11:12:55;;;;;;;5.18;2.00;;;;;;;;;;5070528;28;20052;-64
2021/06/04 11:15:25;;;;;;;6.10;2.25;;;;;;;;;;5070306;28;20040;-65
2021/06/04 11:18:00;;;;;;;3.63;1.73;;;;;;;;;;5070442;28;20024;-64
2021/06/04 11:20:31;;;;;;;4.20;1.85;;;;;;;;;;5070197;28;20480;-65
2021/06/04 11:22:57;;;;;;;5.05;2.00;;;;;;;;;;5070186;28;20055;-68
2021/06/04 11:25:32;;;;;;;6.18;1.90;;;;;;;;;;5070118;28;20021;-67
2021/06/04 11:28:10;;;;;;;11.98;2.60;;;;;;;;;;5070095;28;20060;-70
2021/06/04 11:30:37;;;;;;;5.38;1.98;;;;;;;;;;5070108;28;20107;-68
2021/06/04 11:33:16;;;;;;;5.32;2.58;;;;;;;;;;5068229;28;20360;-69
2021/06/04 11:35:44;;;;;;;8.07;2.70;;;;;;;;;;5069727;28;20033;-69
2021/06/04 11:38:18;;;;;;;4.13;2.30;;;;;;;;;;5069855;28;20167;-68
2021/06/04 11:40:52;;;;;;;4.20;2.15;;;;;;;;;;5069933;28;20101;-67
2021/06/04 11:43:32;;;;;;;3.42;2.08;;;;;;;;;;5073117;28;20024;-68
2021/06/04 11:46:13;;;;;;;3.65;1.92;;;;;;;;;;5073385;28;20441;-63
2021/06/04 11:48:40;;;;;;;10.38;2.22;;;;;;;;;;5073711;28;20542;-68
2021/06/04 11:51:19;;;;;;;3.95;1.60;;;;;;;;;;5073485;28;20157;-63
2021/06/04 11:53:49;;;;;;;4.03;1.95;;;;;;;;;;5073389;28;20024;-68
2021/06/04 11:56:45;;;;;;;3.47;1.70;;;;;;;;;;5073790;28;20112;-68
2021/06/04 11:59:13;;;;;;;5.63;1.70;;;;;;;;;;5067720;28;20036;-66
2021/06/04 12:01:45;;;;;;;2.72;1.70;;;;;;;;;;5072945;28;20028;-67
2021/06/04 12:04:11;;;;;;;;;;;;;;;;;;5073356;28;20040;-69
2021/06/04 12:06:37;;;;;;;5.55;1.63;;;;;;;;;;5073299;28;19908;-66
2021/06/04 12:09:23;;;;;;;3.58;1.80;;;;;;;;;;5072256;28;20032;-67
2021/06/04 12:11:49;;;;;;;2.70;1.77;;;;;;;;;;5072945;28;20039;-66
2021/06/04 12:14:17;;;;;;;2.80;1.60;;;;;;;;;;5073318;28;20039;-67
2021/06/04 12:16:43;;;;;;;3.75;1.80;;;;;;;;;;5073363;28;20047;-69
2021/06/04 12:19:23;;;;;;;3.95;2.10;;;;;;;;;;5072771;28;20028;-66
2021/06/04 12:21:51;;;;;;;5.03;1.70;;;;;;;;;;5072859;28;20367;-68
2021/06/04 12:24:17;;;;;;;3.03;1.60;;;;;;;;;;5073025;28;20422;-67
2021/06/04 12:26:43;;;;;;;3.72;1.90;;;;;;;;;;5073011;28;20036;-66
2021/06/04 12:29:36;;;;;;;5.90;2.00;;;;;;;;;;5072995;28;20095;-65
2021/06/04 12:32:04;;;;;;;5.25;1.73;;;;;;;;;;5071631;28;20036;-69
2021/06/04 12:34:37;;;;;;;3.92;1.70;;;;;;;;;;5072825;28;20125;-69
2021/06/04 12:37:03;;;;;;;4.55;2.03;;;;;;;;;;5072518;28;20396;-65
2021/06/04 12:39:32;;;;;;;3.25;1.58;;;;;;;;;;5072931;28;20024;-69
2021/06/04 12:42:07;;;;;;;2.80;1.70;;;;;;;;;;5072383;28;20025;-69
2021/06/04 12:44:34;;;;;;;3.95;1.73;;;;;;;;;;5072587;28;20032;-67
2021/06/04 12:47:00;;;;;;;3.75;1.80;;;;;;;;;;5070788;28;20028;-69
2021/06/04 12:49:26;;;;;;;7.32;1.95;;;;;;;;;;5072030;28;20031;-65
2021/06/04 12:51:52;;;;;;;5.50;1.80;;;;;;;;;;5071804;28;20075;-68
2021/06/04 12:54:24;;;;;;;5.88;2.08;;;;;;;;;;5071970;28;20040;-68
2021/06/04 12:56:50;;;;;;;;;;;;;;;;;;5072029;28;20032;-69
2021/06/04 12:59:20;;;;;;;3.75;1.98;;;;;;;;;;5071075;28;19908;-65
2021/06/04 13:01:52;;;;;;;4.25;1.80;;;;;;;;;;5071414;28;20021;-69
2021/06/04 13:04:20;;;;;;;;;;;;;;;;;;5072424;28;20515;-70
2021/06/04 13:06:49;;;;;;;3.85;1.90;;;;;;;;;;5071881;28;19931;-69
2021/06/04 13:09:30;;;;;;;6.30;2.53;;;;;;;;;;5071591;28;20052;-69
2021/06/04 13:11:58;;;;;;;14.60;6.10;;;;;;;;;;5071813;28;20044;-66
2021/06/04 13:14:34;;;;;;;8.35;4.38;;;;;;;;;;5070812;28;20036;-65
2021/06/04 13:17:13;;;;;;;4.82;2.10;;;;;;;;;;5071019;28;20024;-67
2021/06/04 13:19:39;;;;;;;5.65;2.35;;;;;;;;;;5071481;28;20025;-69
2021/06/04 13:22:37;;;;;;;5.57;2.25;;;;;;;;;;5071646;28;20099;-68
2021/06/04 13:25:16;;;;;;;5.35;2.05;;;;;;;;;;5049423;28;20048;-69
2021/06/04 13:27:43;;;;;;;4.65;2.40;;;;;;;;;;5048845;28;20068;-62
2021/06/04 13:30:11;;;;;;;3.30;1.92;;;;;;;;;;5049600;28;20029;-71
2021/06/04 13:32:51;;;;;;;4.57;2.42;;;;;;;;;;5048647;28;20416;-69
2021/06/04 13:35:23;;;;;;;3.83;2.00;;;;;;;;;;5049443;28;20144;-66
2021/06/04 13:37:49;;;;;;;;;;;;;;;;;;5049444;28;20025;-67
2021/06/04 13:40:18;;;;;;;3.58;1.98;;;;;;;;;;5049216;28;19908;-70
2021/06/04 13:42:45;;;;;;;5.88;2.40;;;;;;;;;;5048657;28;20165;-66
2021/06/04 13:45:13;;;;;;;5.47;2.20;;;;;;;;;;5049167;28;20041;-70
2021/06/04 13:47:41;;;;;;;6.15;2.35;;;;;;;;;;5048750;28;20037;-65
2021/06/04 13:50:34;;;;;;;5.60;2.40;;;;;;;;;;5049216;28;20543;-67
2021/06/04 13:53:03;;;;;;;2.65;2.13;;;;;;;;;;5026271;28;20123;-69
2021/06/04 13:55:29;;;;;;;6.55;2.30;;;;;;;;;;5048784;28;20045;-68
2021/06/04 13:58:14;;;;;;;4.88;1.90;;;;;;;;;;5048841;28;20086;-69
2021/06/04 14:00:40;;;;;;;6.30;2.40;;;;;;;;;;5059708;28;20052;-67
2021/06/04 14:03:12;;;;;;;8.52;2.30;;;;;;;;;;5079048;28;20040;-65
2021/06/04 14:05:39;;;;;;;5.40;2.15;;;;;;;;;;5067016;28;20021;-63
2021/06/04 14:08:12;;;;;;;10.23;2.90;;;;;;;;;;5075976;28;20028;-65
2021/06/04 14:10:44;;;;;;;6.38;2.60;;;;;;;;;;5077759;28;20426;-71
2021/06/04 14:13:15;;;;;;;4.53;2.40;;;;;;;;;;5089768;28;20028;-63
2021/06/04 14:15:41;;;;;;;3.95;2.10;;;;;;;;;;5088945;28;20147;-65
2021/06/04 14:18:25;;;;;;;3.70;2.20;;;;;;;;;;5090738;28;20028;-65
2021/06/04 14:20:51;;;;;;;7.63;4.53;;;;;;;;;;5091021;28;20070;-70
2021/06/04 14:23:26;;;;;;;7.55;3.17;;;;;;;;;;5090768;28;20101;-68
2021/06/04 14:26:12;;;;;;;12.38;3.40;;;;;;;;;;5091207;28;20020;-70
2021/06/04 14:28:38;;;;;;;4.10;2.03;;;;;;;;;;5091269;28;20475;-67
2021/06/04 14:31:06;;;;;;;6.20;2.78;;;;;;;;;;5090616;28;20376;-71
2021/06/04 14:33:39;;;;;;;4.10;2.60;;;;;;;;;;5090291;28;20076;-70
2021/06/04 14:36:05;;;;;;;6.45;2.53;;;;;;;;;;5090792;28;20061;-71
2021/06/04 14:38:37;;;;;;;4.70;2.17;;;;;;;;;;5088504;28;20028;-69
2021/06/04 14:41:03;;;;;;;;;;;;;;;;;;5090488;28;20090;-68
2021/06/04 14:43:30;;;;;;;10.30;2.88;;;;;;;;;;5090568;28;19908;-71
2021/06/04 14:45:56;;;;;;;5.50;2.75;;;;;;;;;;5090943;28;20024;-66
2021/06/04 14:48:24;;;;;;;3.85;2.28;;;;;;;;;;5088115;28;20031;-71
2021/06/04 14:50:52;;;;;;;4.30;2.80;;;;;;;;;;5071838;28;20097;-71
2021/06/04 14:53:18;;;;;;;6.20;3.05;;;;;;;;;;5069594;28;20037;-68